Time;durP1;ratioP1;P1;durP2;ratioP2;P2;SDS_P1;SDS_P2;PMS_P1;PMS_P2;Temp;Humidity;BMP_temperature;BMP_pressure;BME280_temperature;BME280_humidity;BME280_pressure;Samples;Min_cycle;Max_cycle;Signal;HPM_P1;HPM_P2
2022/01/16 00:00:19;;;;;;;58.83;29.17;;;;;;;0.53;100.00;102402.19;5014194;28;20452;-89
2022/01/16 00:05:25;;;;;;;60.90;28.48;;;;;;;0.49;100.00;102423.34;5035306;28;20179;-82
2022/01/16 00:07:51;;;;;;;59.10;28.83;;;;;;;0.36;100.00;102389.41;5035146;28;20044;-88
2022/01/16 00:10:18;;;;;;;56.63;29.80;;;;;;;0.48;100.00;102412.31;5035393;28;20037;-83
2022/01/16 00:12:48;;;;;;;57.90;29.30;;;;;;;0.48;100.00;102425.03;5017245;28;20037;-90
2022/01/16 00:15:14;;;;;;;58.10;28.80;;;;;;;0.46;100.00;102415.72;5035218;28;20029;-89
2022/01/16 00:17:51;;;;;;;58.17;29.10;;;;;;;0.41;99.91;102419.94;5035044;28;20465;-86
2022/01/16 00:20:17;;;;;;;61.42;28.08;;;;;;;0.27;99.95;102395.28;5017130;28;20025;-85
2022/01/16 00:22:44;;;;;;;56.42;28.55;;;;;;;0.39;100.00;102406.34;5034965;28;20485;-89
2022/01/16 00:25:10;;;;;;;60.28;29.10;;;;;;;0.12;100.00;102367.28;5034918;28;20025;-86
2022/01/16 00:27:35;;;;;;;58.10;28.00;;;;;;;0.41;100.00;102408.09;5035008;28;20473;-89
2022/01/16 00:30:01;;;;;;;52.45;26.67;;;;;;;0.40;100.00;102393.69;5035061;28;20026;-87
2022/01/16 00:32:26;;;;;;;51.78;27.85;;;;;;;0.40;100.00;102392.84;5035058;28;20076;-85
2022/01/16 00:34:52;;;;;;;56.13;27.80;;;;;;;0.37;100.00;102401.28;5034508;28;20026;-88
2022/01/16 00:37:17;;;;;;;54.33;27.77;;;;;;;0.18;100.00;102369.84;5034729;28;20029;-86
2022/01/16 00:39:42;;;;;;;60.10;28.67;;;;;;;0.24;99.41;102380.03;5034532;28;20469;-90
2022/01/16 00:42:08;;;;;;;51.85;27.60;;;;;;;0.39;100.00;102407.19;5034635;28;20386;-88
2022/01/16 00:44:33;;;;;;;57.25;29.40;;;;;;;0.38;100.00;102407.19;5034882;28;20040;-90
2022/01/16 00:46:58;;;;;;;55.92;28.92;;;;;;;0.42;100.00;102411.47;5034727;28;20021;-88
2022/01/16 00:49:24;;;;;;;60.20;29.35;;;;;;;0.41;100.00;102399.63;5034564;28;20029;-87
2022/01/16 00:51:49;;;;;;;55.40;29.67;;;;;;;0.42;100.00;102409.78;5034432;28;20441;-88
2022/01/16 00:54:14;;;;;;;58.83;29.85;;;;;;;0.31;100.00;102392.78;5034300;28;20035;-84
2022/01/16 00:56:40;;;;;;;55.90;28.40;;;;;;;0.45;100.00;102393.69;5034310;28;20405;-88
2022/01/16 00:59:05;;;;;;;55.53;27.75;;;;;;;0.30;100.00;102338.59;5034602;28;20465;-88
2022/01/16 01:01:31;;;;;;;59.03;29.50;;;;;;;0.37;99.96;102349.59;5034280;28;20428;-86
2022/01/16 01:03:57;;;;;;;63.58;29.73;;;;;;;0.45;99.88;102361.50;5034345;28;20108;-84
2022/01/16 01:06:23;;;;;;;59.22;28.75;;;;;;;0.49;100.00;102382.69;5034103;28;20018;-83
2022/01/16 01:08:48;;;;;;;64.00;29.20;;;;;;;0.34;100.00;102344.53;5016381;28;20021;-89
2022/01/16 01:11:17;;;;;;;60.10;30.02;;;;;;;0.41;100.00;102359.81;5034367;28;20020;-88
2022/01/16 01:14:07;;;;;;;63.47;30.35;;;;;;;0.57;100.00;102378.47;5015538;28;20129;-81
2022/01/16 01:17:08;;;;;;;60.05;29.83;;;;;;;0.54;100.00;102386.09;5034102;28;20061;-88
2022/01/16 01:19:29;;;;;;;61.72;29.42;;;;;;;0.49;99.88;102372.50;5030939;28;20025;-89
2022/01/16 01:21:56;;;;;;;65.85;30.05;;;;;;;0.47;100.00;102376.75;5016416;28;20116;-86
2022/01/16 01:24:23;;;;;;;64.07;28.98;;;;;;;0.33;100.00;102328.44;5033913;28;20021;-86
2022/01/16 01:27:34;;;;;;;65.30;29.95;;;;;;;0.46;100.00;102364.88;5034128;28;20021;-88
2022/01/16 01:29:35;;;;;;;68.00;29.90;;;;;;;0.49;100.00;102375.06;5022989;28;20052;-89
2022/01/16 01:32:02;;;;;;;72.88;31.48;;;;;;;0.49;100.00;102378.47;5033766;28;20013;-89
2022/01/16 01:34:27;;;;;;;64.72;29.92;;;;;;;0.52;100.00;102365.75;5033898;28;20036;-89
2022/01/16 01:36:53;;;;;;;70.63;31.02;;;;;;;0.47;100.00;102334.38;5016031;28;20026;-86
2022/01/16 01:39:20;;;;;;;68.18;31.48;;;;;;;0.55;100.00;102297.13;5033666;28;20022;-86
2022/01/16 01:41:49;;;;;;;67.53;30.48;;;;;;;0.51;100.00;102299.69;5033574;28;20493;-85
2022/01/16 01:52:26;;;;;;;79.22;32.45;;;;;;;0.11;100.00;102276.72;5033522;28;20044;-84
2022/01/16 01:54:53;;;;;;;77.80;32.58;;;;;;;0.06;100.00;102278.38;5033084;28;20077;-85
2022/01/16 01:57:39;;;;;;;76.32;33.67;;;;;;;0.50;100.00;102349.66;5033152;28;20064;-74
2022/01/16 02:00:09;;;;;;;72.82;33.17;;;;;;;0.46;100.00;102357.25;5016030;28;20029;-75
2022/01/16 02:02:46;;;;;;;75.30;34.20;;;;;;;0.52;100.00;102362.38;5015558;28;20032;-88
2022/01/16 02:05:12;;;;;;;73.70;32.22;;;;;;;-0.23;100.00;102252.00;5033286;28;20034;-83
2022/01/16 02:07:37;;;;;;;77.70;33.70;;;;;;;0.55;100.00;102372.53;5015291;28;20042;-88
2022/01/16 02:10:04;;;;;;;75.82;33.72;;;;;;;0.52;100.00;102375.94;5033071;28;20026;-88
2022/01/16 02:12:30;;;;;;;76.47;33.85;;;;;;;0.52;100.00;102375.94;5015243;28;20124;-87
2022/01/16 02:15:06;;;;;;;79.10;34.35;;;;;;;0.14;100.00;102319.03;5032946;28;20095;-87
2022/01/16 02:31:17;;;;;;;89.90;37.08;;;;;;;0.51;100.00;102394.56;5033026;28;20030;-82
2022/01/16 02:36:32;;;;;;;92.55;36.55;;;;;;;0.50;100.00;102399.66;5032975;28;20057;-87
2022/01/16 02:39:10;;;;;;;82.45;38.05;;;;;;;0.49;100.00;102406.44;5032656;28;20021;-89
2022/01/16 02:41:35;;;;;;;86.78;38.58;;;;;;;0.47;100.00;102397.06;5032803;28;20430;-89
2022/01/16 02:44:11;;;;;;;93.70;37.97;;;;;;;0.43;100.00;102382.66;5032605;28;20056;-78
2022/01/16 02:46:36;;;;;;;86.18;36.67;;;;;;;0.36;100.00;102370.78;5032807;28;20048;-85
2022/01/16 02:49:03;;;;;;;82.32;36.88;;;;;;;0.38;100.00;102352.16;5032807;28;20018;-87
2022/01/16 02:51:28;;;;;;;89.63;38.25;;;;;;;0.35;100.00;102341.97;5032703;28;20056;-86
2022/01/16 02:53:55;;;;;;;86.28;38.42;;;;;;;0.49;100.00;102358.13;5032368;28;20060;-88
2022/01/16 02:56:21;;;;;;;103.38;38.85;;;;;;;0.46;100.00;102362.34;5032536;28;20026;-85
2022/01/16 02:58:48;;;;;;;97.45;39.03;;;;;;;0.40;100.00;102334.38;5032714;28;20087;-82
2022/01/16 03:01:14;;;;;;;83.43;38.38;;;;;;;0.47;100.00;102348.78;5032554;28;20045;-82
2022/01/16 03:03:42;;;;;;;87.25;36.25;;;;;;;0.46;100.00;102350.47;5032486;28;20027;-88
2022/01/16 03:06:07;;;;;;;88.15;37.58;;;;;;;0.44;100.00;102354.72;5032447;28;20030;-81
2022/01/16 03:08:33;;;;;;;82.30;36.38;;;;;;;0.44;100.00;102331.84;5014685;28;20021;-87
2022/01/16 03:13:40;;;;;;;89.50;35.92;;;;;;;0.48;100.00;102331.00;5032200;28;20454;-86
2022/01/16 03:16:05;;;;;;;84.60;36.33;;;;;;;0.33;100.00;102314.88;5032327;28;20048;-86
2022/01/16 03:23:59;;;;;;;86.60;36.88;;;;;;;0.43;100.00;102329.31;5032953;28;20483;-85
2022/01/16 03:26:24;;;;;;;79.60;35.83;;;;;;;0.41;100.00;102323.38;5014391;28;20128;-81
2022/01/16 03:28:50;;;;;;;80.40;35.28;;;;;;;0.42;100.00;102320.00;5032359;28;20022;-87
2022/01/16 03:31:15;;;;;;;73.82;33.80;;;;;;;0.42;100.00;102323.38;5032299;28;20060;-84
2022/01/16 03:33:40;;;;;;;79.00;37.30;;;;;;;0.42;100.00;102325.06;5032084;28;20112;-78
2022/01/16 03:36:06;;;;;;;78.10;34.58;;;;;;;0.19;100.00;102285.16;5014895;28;20103;-82
2022/01/16 03:38:31;;;;;;;73.72;35.97;;;;;;;0.42;100.00;102309.81;5036244;28;20036;-87
2022/01/16 03:40:57;;;;;;;81.03;36.58;;;;;;;0.44;100.00;102306.44;5035960;28;20040;-87
2022/01/16 03:43:22;;;;;;;78.10;34.25;;;;;;;0.44;100.00;102298.81;5035929;28;20026;-85
2022/01/16 03:45:47;;;;;;;75.10;34.42;;;;;;;0.44;100.00;102301.34;5035968;28;20056;-80
2022/01/16 03:48:14;;;;;;;66.55;34.33;;;;;;;0.43;100.00;102304.75;5035589;28;20029;-82
2022/01/16 03:50:40;;;;;;;76.00;35.85;;;;;;;0.36;100.00;102289.47;5035868;28;20029;-85
2022/01/16 03:53:06;;;;;;;76.45;35.88;;;;;;;0.36;100.00;102294.56;5035639;28;20038;-85
2022/01/16 03:55:33;;;;;;;73.70;35.35;;;;;;;0.50;100.00;102315.78;5035742;28;20108;-85
2022/01/16 03:57:58;;;;;;;74.93;36.25;;;;;;;0.33;100.00;102286.94;5035654;28;20366;-88
2022/01/16 04:00:24;;;;;;;77.72;36.50;;;;;;;0.50;100.00;102321.72;5035737;28;20036;-83
2022/01/16 04:02:49;;;;;;;77.10;37.88;;;;;;;0.49;100.00;102314.94;5017726;28;20466;-82
2022/01/16 04:05:15;;;;;;;76.28;36.90;;;;;;;0.39;100.00;102297.09;5035596;28;20037;-85
2022/01/16 04:07:40;;;;;;;77.43;36.55;;;;;;;0.56;100.00;102320.84;5035426;28;20183;-88
2022/01/16 04:10:08;;;;;;;79.50;37.30;;;;;;;0.56;100.00;102320.84;5035521;28;20545;-86
2022/01/16 04:12:35;;;;;;;77.05;37.20;;;;;;;0.58;100.00;102322.56;5035360;28;20401;-86
2022/01/16 04:17:26;;;;;;;78.13;37.83;;;;;;;0.41;100.00;102277.63;5015432;28;20049;-88
2022/01/16 04:19:52;;;;;;;80.60;38.88;;;;;;;0.60;100.00;102306.47;5015402;28;20504;-90
2022/01/16 04:22:19;;;;;;;84.85;39.22;;;;;;;0.55;100.00;102309.00;5015693;28;20396;-85
2022/01/16 04:24:45;;;;;;;81.57;39.90;;;;;;;0.54;100.00;102308.16;5015378;28;20018;-75
2022/01/16 04:27:12;;;;;;;79.95;39.72;;;;;;;0.39;100.00;102279.31;5015329;28;20036;-82
2022/01/16 04:29:42;;;;;;;87.32;40.55;;;;;;;0.50;100.00;102303.91;5015263;28;20022;-82
2022/01/16 04:32:08;;;;;;;86.30;41.88;;;;;;;0.36;100.00;102285.22;5014936;28;20045;-89
2022/01/16 04:34:43;;;;;;;92.35;40.88;;;;;;;0.34;100.00;102286.94;5015154;28;20030;-75
2022/01/16 04:37:08;;;;;;;91.47;42.47;;;;;;;0.33;100.00;102292.84;5015227;28;20197;-87
2022/01/16 04:39:36;;;;;;;88.65;42.22;;;;;;;0.42;100.00;102302.19;5015204;28;20104;-84
2022/01/16 04:44:49;;;;;;;90.07;42.85;;;;;;;0.40;100.00;102303.91;5014996;28;20037;-89
2022/01/16 04:47:15;;;;;;;83.32;42.80;;;;;;;0.39;100.00;102302.16;5014856;28;20113;-86
2022/01/16 04:49:40;;;;;;;89.15;45.30;;;;;;;0.31;100.00;102286.94;5014943;28;20164;-85
2022/01/16 04:52:06;;;;;;;86.97;44.90;;;;;;;0.41;100.00;102295.44;5015094;28;20065;-79
2022/01/16 04:54:32;;;;;;;89.18;45.42;;;;;;;0.20;100.00;102270.81;5014757;28;20462;-81
2022/01/16 04:56:57;;;;;;;92.43;46.95;;;;;;;0.28;100.00;102277.59;5014774;28;20037;-90
2022/01/16 04:59:22;;;;;;;93.57;46.25;;;;;;;0.21;100.00;102257.25;4996802;28;20525;-83
2022/01/16 05:01:48;;;;;;;87.78;43.85;;;;;;;0.45;100.00;102284.41;5014658;28;20033;-88
2022/01/16 05:04:13;;;;;;;89.97;47.78;;;;;;;0.25;100.00;102251.34;5014693;28;20026;-89
2022/01/16 05:06:38;;;;;;;88.45;45.90;;;;;;;0.41;100.00;102275.94;5014586;28;20129;-85
2022/01/16 05:09:04;;;;;;;92.00;48.42;;;;;;;0.52;100.00;102286.13;4996091;28;20038;-82
2022/01/16 05:11:29;;;;;;;91.93;46.47;;;;;;;0.55;100.00;102278.50;5014525;28;20167;-80
2022/01/16 05:16:37;;;;;;;93.95;47.97;;;;;;;0.58;100.00;102279.34;5014300;28;20034;-87
2022/01/16 05:19:12;;;;;;;90.68;48.17;;;;;;;0.55;100.00;102266.63;5014675;28;20031;-80
2022/01/16 05:21:38;;;;;;;88.32;49.00;;;;;;;0.62;100.00;102280.22;5014425;28;20427;-78
2022/01/16 05:24:09;;;;;;;89.47;47.10;;;;;;;0.56;100.00;102268.31;4996622;28;20478;-84
2022/01/16 05:26:36;;;;;;;89.55;48.53;;;;;;;0.63;100.00;102274.28;5014245;28;20029;-86
2022/01/16 05:29:02;;;;;;;94.20;49.05;;;;;;;0.48;100.00;102252.22;5013846;28;20072;-88
2022/01/16 05:31:28;;;;;;;87.63;47.90;;;;;;;0.47;100.00;102242.91;5014137;28;20029;-86
2022/01/16 05:33:53;;;;;;;98.53;50.75;;;;;;;0.48;100.00;102254.75;5014142;28;20030;-85
2022/01/16 05:36:20;;;;;;;93.60;49.70;;;;;;;0.52;100.00;102259.00;5014038;28;20068;-79
2022/01/16 05:38:45;;;;;;;94.15;49.75;;;;;;;0.65;100.00;102274.28;5014062;28;20100;-89
2022/01/16 05:41:10;;;;;;;92.15;49.80;;;;;;;0.69;100.00;102281.94;5013960;28;20077;-87
2022/01/16 05:43:36;;;;;;;95.68;50.03;;;;;;;0.70;100.00;102281.06;5013552;28;20054;-83
2022/01/16 05:46:01;;;;;;;92.05;48.72;;;;;;;0.56;100.00;102252.22;5014015;28;20026;-87
2022/01/16 05:48:27;;;;;;;94.50;49.08;;;;;;;0.60;100.00;102274.28;5013955;28;20080;-86
2022/01/16 05:50:53;;;;;;;92.75;49.22;;;;;;;0.45;100.00;102243.75;5013887;28;20022;-88
2022/01/16 05:53:18;;;;;;;91.55;50.17;;;;;;;0.75;100.00;102297.16;5013739;28;20069;-89
2022/01/16 05:55:44;;;;;;;97.43;52.05;;;;;;;0.77;100.00;102303.09;5013807;28;20449;-87
2022/01/16 05:58:10;;;;;;;93.28;50.10;;;;;;;0.61;100.00;102265.81;5013605;28;20101;-85
2022/01/16 06:00:37;;;;;;;93.40;50.47;;;;;;;0.80;100.00;102289.56;5012970;28;20053;-89
2022/01/16 06:03:03;;;;;;;94.35;50.50;;;;;;;0.82;100.00;102292.94;4996037;28;20373;-87
2022/01/16 06:05:28;;;;;;;91.22;50.90;;;;;;;0.83;100.00;102282.78;5013797;28;20021;-84
2022/01/16 06:07:58;;;;;;;96.35;50.63;;;;;;;0.79;100.00;102277.69;4996001;28;20034;-82
2022/01/16 06:10:24;;;;;;;98.30;50.95;;;;;;;0.51;100.00;102221.75;5013379;28;20026;-87
2022/01/16 06:12:51;;;;;;;99.63;49.65;;;;;;;0.56;100.00;102242.06;5015168;28;20029;-86
2022/01/16 06:15:26;;;;;;;96.47;51.63;;;;;;;0.84;100.00;102279.38;5030789;28;20394;-89
2022/01/16 06:17:51;;;;;;;101.53;51.95;;;;;;;0.72;100.00;102251.41;5015613;28;20501;-89
2022/01/16 06:20:17;;;;;;;95.30;52.53;;;;;;;0.96;100.00;102288.69;5032992;28;20145;-87
2022/01/16 06:22:43;;;;;;;99.30;52.63;;;;;;;0.89;100.00;102268.38;5033165;28;20025;-89
2022/01/16 06:25:10;;;;;;;101.93;52.85;;;;;;;0.98;100.00;102281.91;5033078;28;20061;-86
2022/01/16 06:27:35;;;;;;;96.70;51.35;;;;;;;0.96;100.00;102281.06;5032934;28;20033;-89
2022/01/16 06:30:03;;;;;;;96.47;52.50;;;;;;;1.06;100.00;102287.84;5015025;28;20536;-88
2022/01/16 06:32:29;;;;;;;101.82;53.08;;;;;;;1.11;100.00;102300.59;5032935;28;20419;-82
2022/01/16 06:34:54;;;;;;;101.20;51.83;;;;;;;1.01;100.00;102276.00;5032841;28;20041;-85
2022/01/16 06:37:19;;;;;;;103.38;53.85;;;;;;;1.19;100.00;102306.53;5032817;28;20030;-89
2022/01/16 06:39:45;;;;;;;99.38;53.42;;;;;;;1.17;100.00;102300.56;5032719;28;20524;-84
2022/01/16 06:42:12;;;;;;;95.75;53.38;;;;;;;1.25;100.00;102319.22;5032749;28;20053;-86
2022/01/16 06:44:38;;;;;;;95.82;52.55;;;;;;;1.29;100.00;102318.41;5032417;28;20033;-87
2022/01/16 06:47:03;;;;;;;105.75;54.05;;;;;;;1.32;100.00;102313.28;5014204;28;20038;-76
2022/01/16 06:49:29;;;;;;;101.07;54.33;;;;;;;1.30;100.00;102314.16;5032899;28;20045;-90
2022/01/16 06:51:54;;;;;;;98.90;52.63;;;;;;;1.38;100.00;102315.84;5032663;28;20049;-84
2022/01/16 06:54:20;;;;;;;98.05;53.63;;;;;;;1.39;100.00;102322.63;5032643;28;20044;-81
2022/01/16 06:56:45;;;;;;;99.95;51.40;;;;;;;1.31;100.00;102309.06;5032632;28;20099;-89
2022/01/16 06:59:10;;;;;;;94.95;51.70;;;;;;;1.47;100.00;102329.38;5032509;28;20033;-77
2022/01/16 07:01:36;;;;;;;97.07;51.35;;;;;;;1.51;100.00;102336.19;5032256;28;20037;-86
2022/01/16 07:04:01;;;;;;;100.13;51.53;;;;;;;1.54;100.00;102326.84;5032871;28;20068;-91
2022/01/16 07:06:26;;;;;;;93.43;51.53;;;;;;;1.56;100.00;102327.66;5032685;28;20025;-90
2022/01/16 07:08:52;;;;;;;92.28;50.50;;;;;;;1.58;100.00;102330.25;5032970;28;20056;-92
2022/01/16 07:11:17;;;;;;;94.32;50.17;;;;;;;1.38;100.00;102315.84;5033428;28;20032;-91
2022/01/16 07:13:42;;;;;;;92.50;50.97;;;;;;;1.60;100.00;102344.66;5018673;28;20417;-80
2022/01/16 07:16:08;;;;;;;93.25;49.97;;;;;;;1.38;100.00;102299.72;5036427;28;20107;-81
2022/01/16 07:18:34;;;;;;;88.55;48.47;;;;;;;1.65;100.00;102349.72;5036931;28;20033;-90
2022/01/16 07:20:59;;;;;;;88.28;49.00;;;;;;;1.50;100.00;102326.84;5036498;28;20044;-89
2022/01/16 07:23:24;;;;;;;88.05;49.35;;;;;;;1.73;100.00;102370.94;5036531;28;20462;-93
2022/01/16 07:25:52;;;;;;;84.40;47.20;;;;;;;1.73;100.00;102366.69;5036487;28;20112;-89
2022/01/16 07:28:17;;;;;;;87.45;47.40;;;;;;;1.71;100.00;102375.19;5036465;28;20029;-90
2022/01/16 07:30:43;;;;;;;82.45;45.90;;;;;;;1.56;100.00;102337.00;5035875;28;20030;-89
2022/01/16 07:33:09;;;;;;;83.63;46.90;;;;;;;1.50;100.00;102329.41;5017529;28;20069;-92
2022/01/16 07:35:36;;;;;;;88.18;47.55;;;;;;;1.80;100.00;102380.28;5036217;28;20033;-92
2022/01/16 07:38:03;;;;;;;84.40;44.47;;;;;;;1.69;100.00;102366.72;5036431;28;20028;-90
2022/01/16 07:40:29;;;;;;;81.70;45.38;;;;;;;1.69;100.00;102366.72;5037038;28;20028;-92
2022/01/16 07:42:54;;;;;;;82.57;44.65;;;;;;;1.90;100.00;102393.84;5036584;28;20049;-92
2022/01/16 07:45:21;;;;;;;82.70;44.67;;;;;;;1.93;100.00;102388.72;5036146;28;20039;-77
2022/01/16 07:47:46;;;;;;;84.07;44.33;;;;;;;1.75;100.00;102353.09;5035984;28;20551;-82
2022/01/16 07:50:13;;;;;;;77.13;43.63;;;;;;;1.88;100.00;102377.72;5036108;28;20014;-86
2022/01/16 07:52:39;;;;;;;74.65;42.85;;;;;;;2.02;100.00;102396.34;5036065;28;20513;-82
2022/01/16 07:55:05;;;;;;;77.63;43.53;;;;;;;2.06;100.00;102399.72;5035825;28;20029;-76
2022/01/16 07:57:30;;;;;;;78.40;42.97;;;;;;;2.08;100.00;102404.00;5035480;28;20029;-79
2022/01/16 07:59:55;;;;;;;70.90;40.58;;;;;;;2.09;100.00;102418.44;5035751;28;20041;-86
2022/01/16 08:02:21;;;;;;;72.22;39.78;;;;;;;2.07;100.00;102407.41;5035153;28;20029;-84
2022/01/16 08:04:46;;;;;;;73.60;41.67;;;;;;;1.94;100.00;102382.78;5035429;28;20036;-84
2022/01/16 08:07:12;;;;;;;78.57;42.25;;;;;;;2.13;100.00;102415.00;5035601;28;20484;-80
2022/01/16 08:09:38;;;;;;;80.55;43.38;;;;;;;1.98;100.00;102382.78;5035719;28;20431;-78
2022/01/16 08:12:05;;;;;;;72.88;41.33;;;;;;;2.14;100.00;102405.66;5036133;28;20036;-73
2022/01/16 08:14:30;;;;;;;74.82;41.28;;;;;;;2.27;100.00;102407.34;5035221;28;20136;-79
2022/01/16 08:16:56;;;;;;;79.35;43.40;;;;;;;2.27;100.00;102404.78;5035161;28;20113;-82
2022/01/16 08:19:22;;;;;;;74.40;39.78;;;;;;;2.25;100.00;102404.78;5035453;28;20425;-88
2022/01/16 08:21:48;;;;;;;74.20;41.95;;;;;;;2.33;100.00;102406.44;5035410;28;20025;-83
2022/01/16 08:24:13;;;;;;;77.22;40.22;;;;;;;2.35;100.00;102404.75;5035514;28;20022;-82
2022/01/16 08:26:38;;;;;;;77.22;41.47;;;;;;;2.38;100.00;102404.75;5035526;28;20029;-84
2022/01/16 08:29:04;;;;;;;76.93;40.88;;;;;;;2.24;100.00;102374.19;5033985;28;20021;-77
2022/01/16 08:31:29;;;;;;;75.78;41.17;;;;;;;2.19;100.00;102358.09;5035703;28;20105;-79
2022/01/16 08:33:55;;;;;;;74.47;40.63;;;;;;;2.43;100.00;102401.31;5035722;28;20095;-80
2022/01/16 08:36:21;;;;;;;75.07;42.15;;;;;;;2.46;100.00;102398.78;5035283;28;20113;-91
2022/01/16 08:38:47;;;;;;;77.65;40.75;;;;;;;2.48;100.00;102401.31;5035526;28;20036;-87
2022/01/16 08:41:13;;;;;;;76.38;41.53;;;;;;;2.33;100.00;102373.31;5035563;28;20388;-74
2022/01/16 08:43:38;;;;;;;76.82;42.10;;;;;;;2.55;100.00;102408.91;5035235;28;20029;-94
2022/01/16 08:46:03;;;;;;;82.13;41.20;;;;;;;2.56;100.00;102405.53;5034956;28;20056;-81
2022/01/16 08:48:30;;;;;;;80.15;42.22;;;;;;;2.59;100.00;102404.66;5034668;28;20463;-87
2022/01/16 08:50:55;;;;;;;76.35;40.80;;;;;;;2.63;100.00;102411.44;5035030;28;20377;-92
2022/01/16 08:53:21;;;;;;;77.68;41.33;;;;;;;2.56;100.00;102407.22;5035062;28;20026;-91
2022/01/16 08:55:46;;;;;;;78.10;40.78;;;;;;;2.66;100.00;102428.44;5035336;28;20041;-91
2022/01/16 08:58:12;;;;;;;74.10;39.80;;;;;;;2.70;100.00;102427.56;5034998;28;20025;-79
2022/01/16 09:00:37;;;;;;;75.97;41.05;;;;;;;2.71;100.00;102434.34;5035006;28;20373;-85
2022/01/16 09:03:03;;;;;;;80.78;41.42;;;;;;;2.59;100.00;102409.75;5035159;28;20021;-91
2022/01/16 09:05:29;;;;;;;77.07;40.20;;;;;;;2.66;100.00;102420.78;5034919;28;20087;-93
2022/01/16 09:07:55;;;;;;;79.65;40.70;;;;;;;2.59;100.00;102402.97;5035450;28;20026;-91
2022/01/16 09:10:20;;;;;;;83.00;41.55;;;;;;;2.69;100.00;102411.41;5035093;28;20028;-92
2022/01/16 09:12:46;;;;;;;78.72;41.38;;;;;;;2.87;100.00;102446.19;5017105;28;20033;-89
2022/01/16 09:15:12;;;;;;;85.20;42.22;;;;;;;2.75;100.00;102415.63;5021444;28;20111;-92
2022/01/16 09:17:39;;;;;;;82.07;40.88;;;;;;;2.95;100.00;102439.34;4997595;28;20073;-92
2022/01/16 09:20:05;;;;;;;82.43;42.80;;;;;;;2.98;100.00;102441.03;5016707;28;20018;-81
2022/01/16 09:22:31;;;;;;;88.57;41.88;;;;;;;3.01;100.00;102449.50;5015442;28;20029;-92
2022/01/16 09:24:56;;;;;;;88.00;42.33;;;;;;;3.03;100.00;102445.22;5014946;28;20113;-88
2022/01/16 09:27:22;;;;;;;86.03;42.03;;;;;;;2.94;100.00;102427.41;5014984;28;20385;-87
2022/01/16 09:29:47;;;;;;;85.85;43.35;;;;;;;3.06;100.00;102446.94;5014409;28;20087;-88
2022/01/16 09:32:13;;;;;;;78.93;41.28;;;;;;;2.95;100.00;102424.03;5015452;28;20030;-90
2022/01/16 09:34:39;;;;;;;82.30;41.15;;;;;;;3.01;100.00;102434.19;5013686;28;20040;-92
2022/01/16 09:37:09;;;;;;;90.47;43.88;;;;;;;3.16;100.00;102448.56;5015023;28;20030;-93
2022/01/16 09:39:39;;;;;;;85.40;43.30;;;;;;;3.29;100.00;102472.31;5016287;28;20032;-91
2022/01/16 09:42:07;;;;;;;95.80;44.00;;;;;;;3.34;100.00;102468.88;5014311;28;20069;-85
2022/01/16 09:44:36;;;;;;;89.35;44.33;;;;;;;3.01;100.00;102418.03;5014224;28;20074;-82
2022/01/16 09:47:02;;;;;;;91.65;46.30;;;;;;;3.36;100.00;102474.81;5016685;28;20034;-88
2022/01/16 09:49:27;;;;;;;104.80;46.38;;;;;;;3.26;100.00;102447.66;5015295;28;20029;-84
2022/01/16 09:51:53;;;;;;;108.93;50.42;;;;;;;3.45;100.00;102472.22;5014174;28;20037;-86
2022/01/16 09:54:21;;;;;;;117.15;50.42;;;;;;;3.45;100.00;102473.91;5013953;28;20486;-88
2022/01/16 09:56:46;;;;;;;119.03;52.35;;;;;;;3.32;100.00;102452.69;4996979;28;20405;-85
2022/01/16 09:59:11;;;;;;;107.63;49.88;;;;;;;3.51;100.00;102490.88;5014491;28;20014;-82
2022/01/16 10:01:37;;;;;;;112.65;50.13;;;;;;;3.52;100.00;102488.31;5014589;28;20025;-88
2022/01/16 10:04:03;;;;;;;117.45;49.83;;;;;;;3.36;100.00;102464.63;5013900;28;20442;-80
2022/01/16 10:06:28;;;;;;;121.65;49.35;;;;;;;3.41;100.00;102473.06;5014447;28;20053;-85
2022/01/16 10:08:56;;;;;;;118.47;47.80;;;;;;;3.53;100.00;102505.34;5014048;28;20101;-84
2022/01/16 10:11:40;;;;;;;117.15;49.17;;;;;;;3.50;100.00;102492.59;5013684;28;20026;-80
2022/01/16 10:14:22;;;;;;;124.35;49.30;;;;;;;3.51;100.00;102489.19;5018057;28;20092;-91
2022/01/16 10:20:10;;;;;;;127.35;48.75;;;;;;;3.65;100.00;102510.38;4994123;28;20049;-85
2022/01/16 10:22:52;;;;;;;118.57;49.75;;;;;;;3.54;100.00;102486.63;5009396;28;20390;-92
2022/01/16 10:25:35;;;;;;;126.38;48.85;;;;;;;3.75;100.00;102500.94;4993973;28;20065;-89
2022/01/16 10:28:12;;;;;;;122.60;48.25;;;;;;;3.88;100.00;102524.69;4994253;28;20042;-81
2022/01/16 10:30:50;;;;;;;117.57;48.53;;;;;;;3.99;99.96;102513.50;4994379;28;20018;-86
2022/01/16 10:33:19;;;;;;;111.13;46.97;;;;;;;4.13;99.49;102522.75;4993625;28;20030;-83
2022/01/16 10:35:47;;;;;;;112.47;44.88;;;;;;;4.11;98.88;102516.81;4993930;28;20037;-84
2022/01/16 10:40:44;;;;;;;102.18;45.03;;;;;;;4.25;97.44;102520.94;5009924;28;20493;-78
2022/01/16 10:43:13;;;;;;;106.30;43.85;;;;;;;4.37;97.58;102529.34;5013368;28;20445;-89
2022/01/16 10:45:41;;;;;;;105.32;43.92;;;;;;;4.38;97.31;102523.38;5013699;28;20374;-80
2022/01/16 10:48:07;;;;;;;108.63;43.38;;;;;;;4.32;97.29;102506.38;5013241;28;20034;-89
2022/01/16 10:50:41;;;;;;;102.20;41.53;;;;;;;4.35;97.46;102498.69;4995118;28;20088;-87
2022/01/16 10:53:13;;;;;;;102.65;43.00;;;;;;;4.53;96.91;102523.22;5012894;28;20069;-87
2022/01/16 10:55:38;;;;;;;;;;;;;;;4.61;97.63;102524.81;5013621;28;20018;-86
2022/01/16 10:58:24;;;;;;;99.90;41.55;;;;;;;4.59;96.74;102526.53;5013100;28;20277;-83
2022/01/16 11:00:53;;;;;;;101.93;43.38;;;;;;;4.29;96.42;102493.63;5012893;28;20050;-86
2022/01/16 11:03:20;;;;;;;102.13;40.70;;;;;;;4.27;96.74;102495.34;5013035;28;20472;-84
2022/01/16 11:05:46;;;;;;;99.18;42.72;;;;;;;4.43;96.64;102529.31;5012885;28;20029;-89
2022/01/16 11:08:17;;;;;;;103.65;43.20;;;;;;;4.40;97.04;102526.75;5013405;28;20025;-88
2022/01/16 11:10:44;;;;;;;;;;;;;;;4.47;97.18;102528.41;5013553;28;20084;-92
2022/01/16 11:13:11;;;;;;;106.53;41.90;;;;;;;4.44;97.39;102521.63;5012839;28;19921;-83
2022/01/16 11:15:39;;;;;;;102.85;43.65;;;;;;;4.44;97.29;102525.88;5012720;28;20030;-87
2022/01/16 11:18:07;;;;;;;99.47;43.65;;;;;;;4.49;97.03;102531.78;4995308;28;20472;-87
2022/01/16 11:20:35;;;;;;;107.10;44.83;;;;;;;4.38;96.95;102514.00;5012615;28;20033;-85
2022/01/16 11:25:46;;;;;;;97.57;41.63;;;;;;;4.38;97.71;102513.16;5013896;28;20073;-92
2022/01/16 11:28:18;;;;;;;96.95;43.08;;;;;;;4.48;98.12;102538.59;5013373;28;20053;-81
2022/01/16 11:30:49;;;;;;;107.80;44.00;;;;;;;4.46;98.51;102535.22;5012996;28;20591;-89
2022/01/16 11:33:16;;;;;;;105.13;44.30;;;;;;;4.19;98.42;102497.97;5012649;28;20022;-91
2022/01/16 11:35:47;;;;;;;101.82;40.95;;;;;;;4.46;98.69;102529.25;5013185;28;20028;-91
2022/01/16 11:38:14;;;;;;;104.50;43.45;;;;;;;4.40;98.50;102524.19;5013905;28;20021;-91
2022/01/16 11:40:48;;;;;;;96.00;41.20;;;;;;;4.12;98.50;102481.00;5013752;28;20068;-87
2022/01/16 11:43:24;;;;;;;100.13;43.70;;;;;;;4.47;98.83;102533.50;5014200;28;20022;-94
2022/01/16 11:45:54;;;;;;;108.70;44.28;;;;;;;4.46;99.08;102535.22;5013170;28;20113;-91
2022/01/16 11:48:34;;;;;;;110.88;44.63;;;;;;;4.43;99.25;102536.97;4995353;28;20426;-87
2022/01/16 11:51:01;;;;;;;105.95;44.17;;;;;;;4.30;99.11;102510.66;5013129;28;20045;-93
2022/01/16 11:53:57;;;;;;;106.93;46.53;;;;;;;4.48;99.25;102530.09;5013634;28;20021;-95
2022/01/16 11:57:00;;;;;;;110.20;46.10;;;;;;;4.51;98.88;102527.50;5013552;28;20101;-85
2022/01/16 11:59:34;;;;;;;107.88;46.00;;;;;;;4.48;99.07;102525.81;5016237;28;20040;-90
2022/01/16 12:02:00;;;;;;;100.95;44.03;;;;;;;4.42;99.10;102531.00;5016044;28;20026;-93